Time;durP1;ratioP1;P1;durP2;ratioP2;P2;SDS_P1;SDS_P2;PMS_P1;PMS_P2;Temp;Humidity;BMP_temperature;BMP_pressure;BME280_temperature;BME280_humidity;BME280_pressure;Samples;Min_cycle;Max_cycle;Signal;HPM_P1;HPM_P2
2022/07/31 00:02:27;;;;;;;7.55;1.70;;;;;;;19.61;60.51;100896.03;5050147;28;20068;-80
2022/07/31 00:05:30;;;;;;;3.22;1.80;;;;;;;19.65;60.57;100886.88;5049233;28;20040;-80
2022/07/31 00:08:34;;;;;;;5.35;1.92;;;;;;;19.66;60.65;100885.91;5048353;28;20055;-80
2022/07/31 00:11:37;;;;;;;6.70;1.50;;;;;;;19.67;59.92;100882.28;5049663;28;20028;-80
2022/07/31 00:14:41;;;;;;;4.88;1.75;;;;;;;19.55;60.04;100891.25;5050196;28;20398;-80
2022/07/31 00:17:45;;;;;;;7.63;1.80;;;;;;;19.52;60.09;100886.19;5049852;28;20075;-80
2022/07/31 00:20:48;;;;;;;3.40;1.42;;;;;;;19.41;60.83;100878.31;5049748;28;20090;-80
2022/07/31 00:23:51;;;;;;;4.28;1.75;;;;;;;19.49;60.59;100891.75;5050015;28;20063;-80
2022/07/31 00:26:55;;;;;;;3.92;1.70;;;;;;;19.20;61.31;100879.13;5049568;28;20079;-79
2022/07/31 00:29:59;;;;;;;5.28;1.88;;;;;;;19.09;61.42;100884.47;5049430;28;20384;-79
2022/07/31 00:33:02;;;;;;;5.28;2.08;;;;;;;19.18;60.83;100882.88;5049974;28;20047;-79
2022/07/31 00:36:09;;;;;;;3.45;1.83;;;;;;;19.12;60.88;100878.09;5050082;28;20098;-79
2022/07/31 00:39:15;;;;;;;6.63;2.00;;;;;;;19.04;61.22;100884.84;5049175;28;20044;-80
2022/07/31 00:42:20;;;;;;;3.92;1.67;;;;;;;18.98;61.60;100882.69;5048848;28;20044;-79
2022/07/31 00:45:23;;;;;;;4.03;1.85;;;;;;;19.02;61.94;100875.38;5050530;28;20048;-79
2022/07/31 00:48:28;;;;;;;6.18;2.10;;;;;;;19.06;61.37;100874.13;5047463;28;20494;-80
2022/07/31 00:51:31;;;;;;;4.80;1.73;;;;;;;19.05;61.45;100868.00;5047893;28;20040;-79
2022/07/31 00:54:35;;;;;;;5.05;2.05;;;;;;;19.01;61.51;100863.06;5048072;28;20132;-79
2022/07/31 00:57:38;;;;;;;3.17;2.00;;;;;;;18.99;62.15;100865.00;5063645;28;20394;-79
2022/07/31 01:00:41;;;;;;;9.23;1.83;;;;;;;18.96;62.77;100857.31;5063638;28;20051;-79
2022/07/31 01:03:45;;;;;;;4.57;2.05;;;;;;;18.88;63.12;100851.78;5048330;28;20159;-79
2022/07/31 01:06:52;;;;;;;4.70;2.15;;;;;;;18.92;63.04;100850.56;5048718;28;20086;-80
2022/07/31 01:09:59;;;;;;;6.57;2.05;;;;;;;18.87;62.77;100858.06;5050891;28;20130;-80
2022/07/31 01:13:32;;;;;;;3.75;2.05;;;;;;;18.80;63.23;100866.50;5068747;28;20039;-80
2022/07/31 01:16:48;;;;;;;5.65;2.50;;;;;;;18.91;63.29;100859.50;5069134;28;20055;-80
2022/07/31 01:19:52;;;;;;;5.93;1.73;;;;;;;18.89;63.21;100862.28;5067094;28;20048;-80
2022/07/31 01:23:15;;;;;;;6.85;2.20;;;;;;;18.88;63.62;100863.22;5067714;28;20051;-80
2022/07/31 01:27:17;;;;;;;5.22;2.20;;;;;;;18.90;63.71;100863.13;5068496;28;20051;-80
2022/07/31 01:30:24;;;;;;;18.23;2.40;;;;;;;18.63;64.42;100860.84;5066643;28;20044;-80
2022/07/31 01:33:54;;;;;;;5.95;2.65;;;;;;;18.80;63.65;100863.88;5046615;28;20044;-81
2022/07/31 01:37:20;;;;;;;5.07;2.03;;;;;;;19.13;62.24;100851.44;5058194;28;20051;-80
2022/07/31 01:40:27;;;;;;;4.60;1.92;;;;;;;18.65;63.66;100853.63;5047144;28;20063;-80
2022/07/31 01:43:36;;;;;;;7.50;2.58;;;;;;;18.39;64.71;100845.16;5063633;28;20093;-80
2022/07/31 01:46:42;;;;;;;4.40;2.03;;;;;;;18.41;64.67;100845.84;5058572;28;20051;-80
2022/07/31 01:49:49;;;;;;;4.38;2.13;;;;;;;18.44;64.51;100835.88;5049156;28;20491;-81
2022/07/31 01:52:56;;;;;;;6.65;2.10;;;;;;;18.53;63.89;100842.22;5049964;28;20530;-80
2022/07/31 01:56:00;;;;;;;3.65;1.90;;;;;;;18.64;64.09;100846.66;5049976;28;20051;-81
2022/07/31 01:59:05;;;;;;;4.85;1.90;;;;;;;18.61;64.68;100847.75;5051069;28;20086;-81
2022/07/31 02:02:29;;;;;;;4.43;2.20;;;;;;;18.59;64.94;100845.22;5051699;28;20517;-80
2022/07/31 02:05:34;;;;;;;6.30;2.33;;;;;;;18.48;64.89;100841.75;5051047;28;20047;-80
2022/07/31 02:08:40;;;;;;;3.63;2.20;;;;;;;18.34;65.07;100846.34;5051106;28;20067;-80
2022/07/31 02:11:45;;;;;;;4.60;2.33;;;;;;;18.38;65.10;100840.78;5050707;28;20546;-81
2022/07/31 02:14:50;;;;;;;3.53;1.77;;;;;;;18.18;65.59;100845.88;5062659;28;20052;-81
2022/07/31 02:17:58;;;;;;;5.45;1.90;;;;;;;18.08;65.73;100850.22;5050814;28;20431;-80
2022/07/31 02:21:11;;;;;;;2.83;1.70;;;;;;;18.02;65.35;100840.09;5051229;28;20099;-80
2022/07/31 02:24:14;;;;;;;4.63;2.10;;;;;;;18.03;65.12;100849.75;5051688;28;20043;-80
2022/07/31 02:27:18;;;;;;;6.90;1.85;;;;;;;17.91;66.24;100853.34;5052647;28;20183;-80
2022/07/31 02:30:25;;;;;;;4.22;2.22;;;;;;;17.89;66.58;100841.06;5071046;28;20117;-80
2022/07/31 02:33:29;;;;;;;6.55;2.42;;;;;;;17.73;66.36;100837.91;5070881;28;20051;-80
2022/07/31 02:36:34;;;;;;;5.43;1.70;;;;;;;17.79;65.90;100832.16;5051544;28;20048;-80
2022/07/31 02:39:38;;;;;;;5.47;2.10;;;;;;;17.88;65.72;100826.16;5050374;28;20538;-80
2022/07/31 02:42:42;;;;;;;3.85;1.83;;;;;;;17.79;66.19;100823.41;5050391;28;20044;-80
2022/07/31 02:45:46;;;;;;;4.88;2.40;;;;;;;17.65;66.45;100833.22;5050579;28;20487;-80
2022/07/31 02:48:50;;;;;;;4.93;2.30;;;;;;;17.59;66.81;100838.13;5058710;28;20047;-80
2022/07/31 02:51:56;;;;;;;4.05;1.85;;;;;;;17.49;66.78;100838.00;5070974;28;20090;-80
2022/07/31 02:55:01;;;;;;;4.80;2.10;;;;;;;17.51;66.90;100833.41;5071884;28;20047;-80
2022/07/31 02:58:05;;;;;;;4.35;1.98;;;;;;;17.34;67.15;100840.00;5070281;28;20052;-80
2022/07/31 03:01:10;;;;;;;4.13;2.00;;;;;;;17.31;67.40;100834.94;5070647;28;20094;-80
2022/07/31 03:04:14;;;;;;;5.88;1.85;;;;;;;17.26;67.89;100826.53;5069660;28;20098;-80
2022/07/31 03:07:17;;;;;;;4.90;1.80;;;;;;;17.24;67.79;100833.72;5070094;28;20062;-80
2022/07/31 03:10:22;;;;;;;4.82;2.28;;;;;;;17.19;68.02;100835.84;5070344;28;20099;-80
2022/07/31 03:13:42;;;;;;;3.53;2.20;;;;;;;17.22;67.99;100840.91;5069414;28;20047;-80
2022/07/31 03:16:47;;;;;;;4.85;2.13;;;;;;;17.29;67.72;100831.56;5070732;28;20052;-80
2022/07/31 03:19:52;;;;;;;4.75;2.25;;;;;;;17.32;67.54;100833.13;5069369;28;20137;-80
2022/07/31 03:22:56;;;;;;;4.22;2.00;;;;;;;17.29;67.79;100831.56;5069886;28;20047;-80
2022/07/31 03:25:59;;;;;;;5.97;2.30;;;;;;;17.26;68.72;100828.31;5069159;28;20453;-80
2022/07/31 03:29:03;;;;;;;7.47;2.60;;;;;;;17.34;68.76;100832.06;5069015;28;20052;-81
2022/07/31 03:32:06;;;;;;;5.10;2.20;;;;;;;17.37;68.72;100829.19;5068531;28;20071;-81
2022/07/31 03:35:11;;;;;;;2.88;1.73;;;;;;;17.31;68.54;100829.66;5068501;28;20175;-80
2022/07/31 03:38:17;;;;;;;3.38;2.25;;;;;;;17.09;69.21;100827.78;5069263;28;20094;-80
2022/07/31 03:41:24;;;;;;;4.65;1.90;;;;;;;17.09;69.54;100829.59;5069323;28;20051;-80
2022/07/31 03:44:31;;;;;;;4.13;2.20;;;;;;;17.24;69.31;100832.88;5057419;28;20094;-80
2022/07/31 03:47:35;;;;;;;4.57;1.75;;;;;;;17.34;69.05;100831.22;5069323;28;20425;-80
2022/07/31 03:50:40;;;;;;;3.45;1.90;;;;;;;17.32;69.18;100833.13;5070187;28;20039;-80
2022/07/31 03:53:45;;;;;;;6.47;2.17;;;;;;;17.24;69.72;100825.78;5070757;28;20063;-80
2022/07/31 03:57:09;;;;;;;5.65;2.20;;;;;;;17.28;69.93;100824.59;5069388;28;20094;-80
2022/07/31 04:00:14;;;;;;;7.00;2.15;;;;;;;17.22;70.41;100830.34;5068658;28;20055;-80
2022/07/31 04:03:20;;;;;;;4.43;2.30;;;;;;;17.30;70.07;100827.97;5067807;28;20553;-81
2022/07/31 04:06:49;;;;;;;4.10;1.98;;;;;;;17.48;69.45;100824.88;5069627;28;20051;-80
2022/07/31 04:09:52;;;;;;;6.72;1.85;;;;;;;17.40;69.49;100833.41;5068534;28;20043;-80
2022/07/31 04:12:56;;;;;;;4.15;1.88;;;;;;;17.35;69.43;100839.03;5068797;28;20442;-81
2022/07/31 04:16:00;;;;;;;5.82;2.03;;;;;;;17.20;70.01;100833.13;5068791;28;20063;-80
2022/07/31 04:19:04;;;;;;;4.25;2.45;;;;;;;17.33;69.78;100837.47;5068711;28;20501;-80
2022/07/31 04:22:07;;;;;;;11.00;2.22;;;;;;;17.41;69.41;100838.56;5069427;28;20125;-80
2022/07/31 04:25:11;;;;;;;5.68;1.90;;;;;;;17.38;68.88;100841.44;5068602;28;20128;-80
2022/07/31 04:28:30;;;;;;;8.68;1.90;;;;;;;17.44;69.18;100853.34;5063980;28;20540;-81
2022/07/31 04:31:33;;;;;;;3.67;2.00;;;;;;;17.47;69.16;100842.53;5059113;28;20458;-80
2022/07/31 04:34:37;;;;;;;4.30;2.22;;;;;;;17.51;69.01;100848.44;5069338;28;20395;-80
2022/07/31 04:37:41;;;;;;;3.03;1.75;;;;;;;17.48;69.05;100841.56;5049705;28;20048;-81
2022/07/31 04:40:45;;;;;;;5.80;2.33;;;;;;;17.42;69.18;100842.91;5071108;28;20648;-81
2022/07/31 04:43:48;;;;;;;4.20;2.13;;;;;;;17.44;68.65;100846.25;5063497;28;20044;-81
2022/07/31 04:46:52;;;;;;;3.22;2.10;;;;;;;17.46;68.16;100843.50;5063246;28;20117;-81
2022/07/31 04:50:01;;;;;;;4.00;1.90;;;;;;;17.75;66.90;100843.91;5055230;28;20068;-81
2022/07/31 04:53:04;;;;;;;6.93;2.20;;;;;;;17.62;67.21;100848.47;5048910;28;20056;-81
2022/07/31 04:59:34;;;;;;;6.07;2.10;;;;;;;17.61;67.82;100833.53;5057022;28;20132;-80
2022/07/31 05:02:39;;;;;;;3.65;2.35;;;;;;;17.70;67.66;100834.66;5068003;28;20098;-80
2022/07/31 05:05:44;;;;;;;5.63;2.75;;;;;;;17.72;68.18;100840.69;5060138;28;20552;-80
2022/07/31 05:08:48;;;;;;;9.65;2.03;;;;;;;17.81;67.76;100842.66;5062473;28;20127;-80
2022/07/31 05:11:51;;;;;;;6.43;2.60;;;;;;;17.79;67.75;100841.91;5050135;28;20095;-80
2022/07/31 05:14:55;;;;;;;3.95;2.20;;;;;;;18.13;66.34;100838.31;5054809;28;20668;-80
2022/07/31 05:17:58;;;;;;;6.55;2.30;;;;;;;18.15;66.56;100838.19;5060785;28;20101;-80
2022/07/31 05:21:22;;;;;;;8.27;2.63;;;;;;;18.35;65.55;100832.16;5062854;28;20083;-80
2022/07/31 05:24:41;;;;;;;6.28;2.05;;;;;;;18.31;65.01;100830.72;5050455;28;20040;-81
2022/07/31 05:27:49;;;;;;;6.47;1.83;;;;;;;18.44;64.37;100824.41;5063484;28;20643;-80
2022/07/31 05:30:53;;;;;;;4.00;2.05;;;;;;;18.28;64.53;100825.69;5071192;28;20070;-80
2022/07/31 05:33:59;;;;;;;6.65;2.38;;;;;;;18.17;65.60;100823.03;5071587;28;20093;-80
2022/07/31 05:37:03;;;;;;;4.03;2.22;;;;;;;18.18;66.37;100827.34;5062243;28;20063;-80
2022/07/31 05:40:09;;;;;;;4.53;2.60;;;;;;;18.07;66.29;100825.56;5070740;28;20044;-80
2022/07/31 05:43:31;;;;;;;5.88;2.38;;;;;;;18.26;65.75;100827.59;5053094;28;20079;-81
2022/07/31 05:46:43;;;;;;;5.18;2.05;;;;;;;18.23;65.78;100829.66;5061218;28;20036;-80
2022/07/31 05:49:49;;;;;;;3.95;2.03;;;;;;;18.22;66.42;100831.47;5070183;28;20101;-80
2022/07/31 05:52:53;;;;;;;5.43;1.88;;;;;;;18.21;65.50;100831.56;5055766;28;20079;-80
2022/07/31 05:56:15;;;;;;;5.07;2.13;;;;;;;18.26;65.12;100827.59;5050242;28;20047;-80
2022/07/31 05:59:24;;;;;;;5.82;2.03;;;;;;;18.29;64.78;100822.06;5050219;28;20450;-80
2022/07/31 06:02:30;;;;;;;4.93;1.95;;;;;;;18.31;64.77;100821.91;5051001;28;20056;-81
2022/07/31 06:05:47;;;;;;;9.77;2.05;;;;;;;18.48;64.32;100816.13;4801572;28;10000963;-81
2022/07/31 06:08:51;;;;;;;4.95;2.35;;;;;;;18.50;64.95;100815.97;5049046;28;20245;-81
2022/07/31 06:11:57;;;;;;;3.75;2.08;;;;;;;18.48;65.52;100826.72;5055070;28;20124;-80
2022/07/31 06:15:04;;;;;;;4.30;2.10;;;;;;;18.72;64.64;100826.53;5067912;28;20102;-80
2022/07/31 06:18:14;;;;;;;2.95;1.70;;;;;;;18.73;64.52;100825.59;5058934;28;20600;-80
2022/07/31 06:21:21;;;;;;;4.75;2.25;;;;;;;18.93;63.55;100828.41;5070027;28;20126;-81
2022/07/31 06:24:25;;;;;;;5.90;2.20;;;;;;;18.86;64.27;100825.44;5072436;28;20395;-81
2022/07/31 06:27:32;;;;;;;3.60;2.08;;;;;;;18.90;64.92;100820.72;5058026;28;20067;-81
2022/07/31 06:30:39;;;;;;;4.85;2.30;;;;;;;19.08;63.86;100823.63;5067889;28;20059;-81
2022/07/31 06:33:44;;;;;;;6.20;2.67;;;;;;;19.04;63.83;100818.59;5050789;28;20051;-82
2022/07/31 06:36:49;;;;;;;3.63;1.92;;;;;;;19.29;62.31;100820.03;5055823;28;20121;-82
2022/07/31 06:39:55;;;;;;;3.55;2.08;;;;;;;19.49;61.86;100813.03;5051266;28;20040;-82
2022/07/31 06:43:22;;;;;;;4.70;2.33;;;;;;;19.31;62.43;100809.31;5051669;28;20052;-83
2022/07/31 06:46:46;;;;;;;3.70;2.10;;;;;;;19.50;61.67;100813.91;5070251;28;20047;-84
2022/07/31 06:50:13;;;;;;;5.55;2.28;;;;;;;19.73;60.65;100815.44;5070664;28;20027;-83
2022/07/31 06:53:25;;;;;;;3.38;1.90;;;;;;;19.89;60.54;100808.81;5050067;28;20079;-83
2022/07/31 06:56:31;;;;;;;5.35;2.00;;;;;;;19.98;60.07;100811.50;5049670;28;20090;-82
2022/07/31 06:59:39;;;;;;;8.85;2.55;;;;;;;19.95;59.93;100811.75;5049515;28;20572;-82
2022/07/31 07:02:45;;;;;;;7.10;2.63;;;;;;;20.13;59.61;100811.97;5049955;28;20044;-81
2022/07/31 07:05:51;;;;;;;3.25;1.90;;;;;;;20.12;59.84;100804.97;5052633;28;20044;-81
2022/07/31 07:08:55;;;;;;;9.60;2.33;;;;;;;20.20;59.64;100802.50;5058691;28;20523;-78
2022/07/31 07:11:59;;;;;;;4.50;2.10;;;;;;;20.21;59.25;100804.16;5063261;28;20020;-78
2022/07/31 07:15:04;;;;;;;8.52;2.25;;;;;;;20.36;59.10;100804.63;5065974;28;20078;-78
2022/07/31 07:18:08;;;;;;;7.50;2.30;;;;;;;20.45;58.89;100802.94;5049520;28;20095;-78
2022/07/31 07:21:17;;;;;;;3.25;2.03;;;;;;;20.44;59.04;100793.31;5047735;28;20048;-81
2022/07/31 07:24:22;;;;;;;5.03;1.80;;;;;;;20.53;58.46;100792.50;5048372;28;20071;-80
2022/07/31 07:27:40;;;;;;;8.68;2.13;;;;;;;20.63;57.39;100785.38;5058747;28;20526;-82
2022/07/31 07:30:46;;;;;;;4.15;1.92;;;;;;;20.72;58.05;100780.22;5069108;28;20043;-81
2022/07/31 07:33:50;;;;;;;4.38;1.80;;;;;;;20.86;56.41;100779.78;5069008;28;20101;-83
2022/07/31 07:36:59;;;;;;;4.38;1.80;;;;;;;20.98;56.00;100765.38;5068263;28;20051;-80
2022/07/31 07:40:08;;;;;;;4.47;1.75;;;;;;;21.14;56.19;100770.94;5065469;28;20091;-79
2022/07/31 07:43:14;;;;;;;6.60;2.00;;;;;;;21.36;55.47;100764.50;5050964;28;20182;-80
2022/07/31 07:46:24;;;;;;;5.40;1.70;;;;;;;21.52;55.23;100758.56;5051347;28;20557;-82
2022/07/31 07:49:34;;;;;;;5.35;1.75;;;;;;;21.71;54.71;100754.16;5052872;28;20510;-78
2022/07/31 07:52:57;;;;;;;4.28;2.10;;;;;;;21.76;53.40;100749.22;5064792;28;20047;-76
2022/07/31 07:56:27;;;;;;;6.32;2.20;;;;;;;21.84;53.58;100746.69;5073293;28;20526;-78
2022/07/31 08:00:18;;;;;;;17.83;2.25;;;;;;;22.04;53.11;100748.22;5057279;28;20106;-79
2022/07/31 08:03:34;;;;;;;7.82;1.95;;;;;;;22.14;52.44;100747.34;5052779;28;20074;-79
2022/07/31 08:07:05;;;;;;;4.15;1.63;;;;;;;22.12;52.36;100738.69;5052636;28;20083;-78
2022/07/31 08:10:18;;;;;;;7.28;1.70;;;;;;;22.35;52.85;100734.63;5052199;28;20466;-76
2022/07/31 08:17:51;;;;;;;6.57;1.50;;;;;;;22.64;51.35;100729.06;5051933;28;20105;-76
2022/07/31 08:21:04;;;;;;;6.45;1.60;;;;;;;22.65;50.44;100720.06;5052431;28;20080;-76
2022/07/31 08:24:11;;;;;;;5.35;1.83;;;;;;;22.77;50.50;100718.00;5051897;28;20048;-76
2022/07/31 08:27:40;;;;;;;4.65;1.58;;;;;;;22.83;50.79;100725.38;5052440;28;20396;-76
2022/07/31 08:35:57;;;;;;;6.38;1.60;;;;;;;23.06;49.89;100717.75;4999122;28;20049;-76
2022/07/31 08:39:03;;;;;;;12.85;2.20;;;;;;;23.10;50.78;100712.94;5040580;28;20392;-76
2022/07/31 08:42:31;;;;;;;4.80;1.60;;;;;;;23.18;50.01;100708.50;5067128;28;20230;-75
2022/07/31 08:45:36;;;;;;;4.45;1.40;;;;;;;23.32;50.08;100706.22;5071751;28;20571;-76
2022/07/31 08:48:56;;;;;;;5.35;1.38;;;;;;;23.44;49.94;100700.44;5071781;28;20407;-75
2022/07/31 08:52:01;;;;;;;3.05;1.48;;;;;;;23.60;49.66;100698.84;5072964;28;20051;-76
2022/07/31 08:55:32;;;;;;;9.48;1.98;;;;;;;23.71;48.88;100693.28;5053808;28;20159;-76
2022/07/31 08:58:39;;;;;;;6.50;1.38;;;;;;;23.75;48.70;100691.94;5051724;28;20447;-77
2022/07/31 09:01:44;;;;;;;4.80;1.45;;;;;;;23.80;48.10;100689.63;5051135;28;20124;-75
2022/07/31 09:04:49;;;;;;;9.05;1.65;;;;;;;23.77;48.60;100686.44;5069169;28;20048;-75
2022/07/31 09:07:58;;;;;;;4.68;1.65;;;;;;;23.83;48.15;100683.13;5069514;28;20125;-75
2022/07/31 09:11:10;;;;;;;5.55;2.03;;;;;;;23.80;47.61;100683.44;5055082;28;20040;-75
2022/07/31 09:14:33;;;;;;;6.95;1.63;;;;;;;23.76;44.68;100682.09;5048096;28;20126;-76
2022/07/31 09:17:37;;;;;;;4.32;1.38;;;;;;;23.77;43.76;100681.09;5060670;28;20142;-75
2022/07/31 09:20:54;;;;;;;4.28;1.20;;;;;;;23.83;43.08;100681.28;5066947;28;20403;-76
2022/07/31 09:23:59;;;;;;;3.28;1.13;;;;;;;23.93;42.86;100674.97;5067774;28;20044;-76
2022/07/31 09:27:08;;;;;;;3.53;1.48;;;;;;;24.01;42.30;100666.97;5067597;28;20058;-76
2022/07/31 09:30:13;;;;;;;3.72;1.40;;;;;;;24.08;41.88;100667.97;5055483;28;20038;-76
2022/07/31 09:33:45;;;;;;;2.85;1.20;;;;;;;24.11;42.10;100659.63;5055346;28;20044;-76
2022/07/31 09:37:10;;;;;;;6.13;1.27;;;;;;;24.16;41.74;100662.66;5068889;28;20046;-75
2022/07/31 09:40:36;;;;;;;3.75;1.08;;;;;;;24.26;42.75;100671.34;5061548;28;20059;-75
2022/07/31 09:44:03;;;;;;;4.20;1.50;;;;;;;24.41;41.66;100665.34;5048536;28;20079;-75
2022/07/31 09:47:41;;;;;;;3.05;1.40;;;;;;;24.46;41.24;100663.03;5065731;28;20050;-74
2022/07/31 09:50:59;;;;;;;2.40;1.00;;;;;;;24.53;40.50;100664.88;5063625;28;20094;-74
2022/07/31 09:54:20;;;;;;;4.68;1.60;;;;;;;24.55;40.67;100662.88;5050565;28;20055;-74
2022/07/31 09:57:55;;;;;;;3.00;1.40;;;;;;;24.62;40.32;100657.69;5060987;28;20074;-73
2022/07/31 10:01:00;;;;;;;3.58;0.95;;;;;;;24.67;40.27;100658.03;5058914;28;20064;-73
2022/07/31 10:04:05;;;;;;;4.57;1.27;;;;;;;24.73;39.97;100646.66;5056977;28;20439;-73
2022/07/31 10:07:11;;;;;;;2.90;1.25;;;;;;;24.72;40.29;100652.16;5052718;28;20048;-73
2022/07/31 10:10:18;;;;;;;3.42;1.35;;;;;;;24.88;40.04;100651.31;5054684;28;20044;-72
2022/07/31 10:13:49;;;;;;;4.15;1.23;;;;;;;24.81;39.82;100659.16;5055730;28;20134;-74
2022/07/31 10:16:58;;;;;;;5.20;1.33;;;;;;;24.77;39.68;100650.66;5053906;28;20113;-73
2022/07/31 10:20:38;;;;;;;2.97;1.38;;;;;;;24.72;40.54;100650.31;4706524;28;10000575;-73
2022/07/31 10:24:42;;;;;;;3.55;1.10;;;;;;;24.71;39.82;100643.31;5073101;28;20074;-74
2022/07/31 10:27:56;;;;;;;4.07;1.00;;;;;;;24.72;40.67;100644.97;5084715;28;20181;-73
2022/07/31 10:31:01;;;;;;;4.55;1.15;;;;;;;24.88;40.81;100644.09;5059810;28;20391;-74
2022/07/31 10:34:06;;;;;;;6.95;1.30;;;;;;;24.92;40.46;100642.78;5053466;28;20499;-75
2022/07/31 10:37:35;;;;;;;4.13;1.13;;;;;;;24.90;39.88;100639.44;5054775;28;20395;-74
2022/07/31 10:40:54;;;;;;;3.05;1.10;;;;;;;24.80;39.85;100628.09;5054293;28;20118;-73
2022/07/31 10:44:04;;;;;;;4.82;1.17;;;;;;;24.89;40.68;100618.19;5054402;28;20055;-74
2022/07/31 10:47:21;;;;;;;3.90;1.10;;;;;;;25.02;40.29;100610.50;5056178;28;20051;-73
2022/07/31 10:51:08;;;;;;;2.28;1.00;;;;;;;25.01;39.74;100609.63;5053819;28;20094;-75
2022/07/31 10:54:44;;;;;;;5.63;0.88;;;;;;;25.31;39.55;100614.44;5053107;28;20075;-75
2022/07/31 10:58:11;;;;;;;3.70;1.17;;;;;;;25.26;39.61;100602.38;5054352;28;20118;-74
2022/07/31 11:06:15;;;;;;;4.78;1.33;;;;;;;25.85;39.19;100593.91;5008004;28;20108;-75
2022/07/31 11:09:31;;;;;;;4.93;1.35;;;;;;;26.03;38.14;100576.69;5010149;28;20087;-76
2022/07/31 11:13:09;;;;;;;4.20;1.23;;;;;;;26.26;37.81;100577.50;5011055;28;20628;-74
2022/07/31 11:21:42;;;;;;;4.28;1.20;;;;;;;26.45;36.60;100578.81;5001403;28;20128;-76
2022/07/31 11:30:13;;;;;;;5.65;1.90;;;;;;;26.35;35.95;100565.66;4983894;28;20080;-76
2022/07/31 11:38:31;;;;;;;3.72;1.45;;;;;;;26.70;35.16;100552.59;5350794;23;20051;-77
2022/07/31 11:45:14;;;;;;;3.42;1.33;;;;;;;27.04;35.67;100533.25;4952048;28;20516;-77
2022/07/31 11:48:58;;;;;;;4.82;1.60;;;;;;;27.07;35.66;100542.78;4940196;28;20054;-77
2022/07/31 11:53:01;;;;;;;3.58;1.30;;;;;;;27.29;35.45;100533.78;4930963;29;20062;-75
2022/07/31 11:56:55;;;;;;;2.78;1.20;;;;;;;27.30;34.68;100548.03;4872365;29;20519;-77
2022/07/31 12:05:25;;;;;;;3.75;1.35;;;;;;;26.96;34.91;100530.66;4870967;29;20136;-77
2022/07/31 12:30:43;;;;;;;4.32;1.20;;;;;;;26.92;35.37;100513.28;5093564;23;20058;-77
2022/07/31 12:38:45;;;;;;;4.20;1.15;;;;;;;27.00;35.45;100510.50;4965492;23;20112;-76
2022/07/31 12:42:26;;;;;;;3.28;1.13;;;;;;;26.95;35.89;100507.53;5007561;28;20104;-76
2022/07/31 12:45:40;;;;;;;3.55;1.30;;;;;;;26.85;36.07;100501.63;5007391;28;20189;-79
2022/07/31 12:48:43;;;;;;;5.03;1.10;;;;;;;26.85;36.19;100507.00;4987631;28;20045;-79
2022/07/31 12:52:26;;;;;;;4.90;1.20;;;;;;;26.82;36.28;100496.66;4987998;28;20053;-80
2022/07/31 13:04:35;;;;;;;4.72;1.63;;;;;;;27.06;35.87;100508.94;4949249;28;20204;-78
2022/07/31 13:08:01;;;;;;;5.60;1.55;;;;;;;27.13;36.06;100504.47;4943282;28;20511;-76
2022/07/31 13:11:05;;;;;;;3.05;1.20;;;;;;;27.02;37.46;100497.72;4951146;28;20041;-77
2022/07/31 13:14:09;;;;;;;2.78;1.40;;;;;;;27.12;37.00;100502.78;4951154;28;20054;-77
2022/07/31 13:17:12;;;;;;;2.60;1.08;;;;;;;26.98;36.48;100499.13;4951060;28;20050;-77
2022/07/31 13:20:16;;;;;;;3.15;0.98;;;;;;;27.06;36.29;100493.66;4966400;28;20050;-77
2022/07/31 13:23:22;;;;;;;2.67;1.13;;;;;;;27.37;35.64;100492.56;4949018;28;20097;-76
2022/07/31 13:26:32;;;;;;;2.80;1.27;;;;;;;27.47;35.21;100487.72;4949625;28;20054;-74
2022/07/31 13:29:59;;;;;;;2.47;0.85;;;;;;;27.39;36.31;100479.78;4958708;28;20062;-75
2022/07/31 13:33:02;;;;;;;4.88;1.10;;;;;;;27.78;36.94;100471.28;4958170;28;20042;-75
2022/07/31 13:36:06;;;;;;;3.97;1.20;;;;;;;28.40;33.97;100479.59;4970016;28;20094;-76
2022/07/31 13:39:43;;;;;;;16.63;2.90;;;;;;;28.10;34.73;100469.06;4968798;28;20569;-76
2022/07/31 13:42:47;;;;;;;3.35;1.02;;;;;;;27.99;34.63;100473.13;4971075;28;20602;-79
2022/07/31 13:45:50;;;;;;;1.95;0.80;;;;;;;28.14;34.40;100477.53;4974245;28;20053;-76
2022/07/31 13:48:55;;;;;;;4.43;1.15;;;;;;;28.16;34.30;100478.19;4974268;28;20053;-76
2022/07/31 13:51:59;;;;;;;3.03;0.93;;;;;;;28.94;32.83;100463.53;4972512;28;20512;-75
2022/07/31 13:55:03;;;;;;;3.65;1.08;;;;;;;31.21;29.25;100462.31;4973182;28;20045;-76
2022/07/31 13:58:07;;;;;;;2.95;1.05;;;;;;;30.18;30.73;100454.13;4971051;28;20045;-77
2022/07/31 14:01:11;;;;;;;3.30;1.23;;;;;;;32.18;27.75;100451.16;4983716;28;20640;-76
2022/07/31 14:04:15;;;;;;;4.32;1.25;;;;;;;31.82;27.60;100441.91;4970348;28;20057;-76
2022/07/31 14:07:19;;;;;;;2.55;1.10;;;;;;;30.35;30.00;100441.91;4970130;28;20046;-76
2022/07/31 14:10:25;;;;;;;3.20;1.27;;;;;;;28.97;32.33;100443.44;4969814;28;20167;-76
2022/07/31 14:13:29;;;;;;;6.47;1.30;;;;;;;28.76;33.36;100440.91;4971177;28;20046;-76
2022/07/31 14:16:32;;;;;;;5.28;0.95;;;;;;;28.36;34.03;100446.88;4972291;28;20049;-76
2022/07/31 14:19:37;;;;;;;4.50;0.82;;;;;;;28.16;34.05;100444.06;4954046;28;20047;-76
2022/07/31 14:22:41;;;;;;;2.92;0.80;;;;;;;28.29;34.19;100437.94;4981860;28;20125;-75
2022/07/31 14:26:02;;;;;;;4.68;0.90;;;;;;;28.05;34.73;100429.34;4986544;28;20142;-76
2022/07/31 14:29:40;;;;;;;2.17;0.80;;;;;;;28.14;34.97;100424.59;4974099;28;20042;-76
2022/07/31 14:32:44;;;;;;;5.45;0.90;;;;;;;28.00;34.50;100437.16;4973253;28;20101;-75
2022/07/31 14:35:47;;;;;;;7.85;1.05;;;;;;;27.93;35.52;100432.75;4973176;28;20045;-76
2022/07/31 14:38:50;;;;;;;2.67;1.00;;;;;;;28.00;35.46;100434.47;4972150;28;20045;-76
2022/07/31 14:41:54;;;;;;;2.85;0.95;;;;;;;27.99;34.54;100427.44;4971669;28;20097;-76
2022/07/31 14:45:01;;;;;;;2.90;0.80;;;;;;;27.96;34.73;100424.31;4972146;28;20090;-75
2022/07/31 14:48:05;;;;;;;2.63;1.20;;;;;;;27.95;34.73;100428.84;4972895;28;20098;-75
2022/07/31 14:51:16;;;;;;;2.67;0.82;;;;;;;27.95;34.73;100422.63;4972276;28;20050;-76
2022/07/31 14:54:19;;;;;;;1.83;0.90;;;;;;;28.00;35.08;100423.72;4971086;28;20078;-75
2022/07/31 14:58:21;;;;;;;3.40;1.10;;;;;;;28.63;33.42;100423.66;4972396;28;20042;-75
2022/07/31 15:01:43;;;;;;;2.88;1.05;;;;;;;31.93;28.61;100405.22;4972586;28;20045;-75
2022/07/31 15:05:03;;;;;;;4.22;1.63;;;;;;;33.60;26.82;100403.88;4972535;28;20053;-75
2022/07/31 15:08:16;;;;;;;1.98;1.00;;;;;;;32.95;26.56;100413.59;4969507;28;20149;-75
2022/07/31 15:12:20;;;;;;;;;;;;;;;;;;;;;
2022/07/31 15:16:44;;;;;;;2.47;1.20;;;;;;;36.40;22.64;100410.13;4911388;28;20070;-75
2022/07/31 15:19:51;;;;;;;3.38;1.50;;;;;;;34.69;24.02;100406.84;4920188;28;20063;-76
2022/07/31 15:28:33;;;;;;;3.35;1.02;;;;;;;31.38;29.48;100391.56;4971784;28;20425;-76
2022/07/31 15:32:59;;;;;;;2.00;1.00;;;;;;;30.43;31.09;100391.44;4972502;28;20049;-76
2022/07/31 15:36:31;;;;;;;2.03;0.80;;;;;;;29.93;32.07;100405.47;4972217;28;20050;-76
2022/07/31 15:39:36;;;;;;;3.38;1.20;;;;;;;29.10;33.07;100410.38;4960098;28;20058;-75
2022/07/31 15:42:47;;;;;;;6.78;1.20;;;;;;;29.06;33.62;100401.06;4972244;28;20046;-76
2022/07/31 15:45:53;;;;;;;2.78;1.10;;;;;;;29.33;33.51;100397.38;4971780;28;20105;-76
2022/07/31 15:48:57;;;;;;;3.20;1.10;;;;;;;28.94;34.26;100396.25;4971501;28;20493;-76
2022/07/31 15:52:20;;;;;;;3.03;1.17;;;;;;;28.71;34.80;100409.19;4971155;28;20046;-77
2022/07/31 15:55:24;;;;;;;2.53;1.33;;;;;;;28.34;36.11;100408.63;4971066;28;20769;-77
2022/07/31 15:58:27;;;;;;;4.45;1.35;;;;;;;28.15;37.27;100406.66;4971457;28;20050;-76
2022/07/31 16:01:30;;;;;;;3.28;1.67;;;;;;;28.24;36.79;100410.84;4970913;28;20050;-76
2022/07/31 16:04:37;;;;;;;2.92;1.23;;;;;;;28.21;36.85;100401.31;4970516;28;20045;-76
2022/07/31 16:07:48;;;;;;;4.22;1.50;;;;;;;28.42;36.55;100402.25;4971007;28;20716;-76
2022/07/31 16:10:51;;;;;;;4.28;1.40;;;;;;;29.07;36.22;100398.16;4972147;28;20090;-77
2022/07/31 16:13:55;;;;;;;3.42;1.30;;;;;;;28.48;37.92;100407.66;4970803;28;20065;-79
2022/07/31 16:16:59;;;;;;;4.72;1.63;;;;;;;28.39;37.51;100405.31;4970968;28;20081;-77
2022/07/31 16:20:07;;;;;;;4.57;1.50;;;;;;;28.36;37.69;100397.66;4970957;28;20050;-78